createdAt,value
2018-04-17T00:00:12.234Z,101732.02
2018-04-17T00:02:41.267Z,101738.06
2018-04-17T00:05:09.536Z,101730.33
2018-04-17T00:07:38.572Z,101738.25
2018-04-17T00:10:06.844Z,101737.05
2018-04-17T00:12:35.119Z,101739.75
2018-04-17T00:15:04.179Z,101739.86
2018-04-17T00:17:32.450Z,101739.89
2018-04-17T00:20:00.748Z,101739.45
2018-04-17T00:22:29.024Z,101744.20
2018-04-17T00:24:57.284Z,101747.17
2018-04-17T00:27:25.539Z,101741.99
2018-04-17T00:29:53.815Z,101749.44
2018-04-17T00:32:22.099Z,101749.91
2018-04-17T00:34:50.354Z,101760.78
2018-04-17T00:37:19.383Z,101761.28
2018-04-17T00:39:47.641Z,101766.55
2018-04-17T00:42:15.911Z,101765.74
2018-04-17T00:44:44.196Z,101767.08
2018-04-17T00:47:12.455Z,101761.49
2018-04-17T00:49:40.734Z,101767.62
2018-04-17T00:52:08.996Z,101762.88
2018-04-17T00:54:38.047Z,101767.27
2018-04-17T00:57:06.301Z,101766.84
2018-04-17T00:59:35.404Z,101770.72
2018-04-17T01:02:03.665Z,101770.34
2018-04-17T01:04:31.923Z,101765.16
2018-04-17T01:07:00.254Z,101768.17
2018-04-17T01:09:28.516Z,101773.43
2018-04-17T01:11:56.781Z,101774.35
2018-04-17T01:14:25.055Z,101778.72
2018-04-17T01:16:54.075Z,101782.20
2018-04-17T01:19:22.340Z,101782.67
2018-04-17T01:21:51.389Z,101781.37
2018-04-17T01:24:19.660Z,101782.27
2018-04-17T01:26:47.911Z,101789.20
2018-04-17T01:29:16.175Z,101787.93
2018-04-17T01:31:44.438Z,101792.27
2018-04-17T01:34:12.712Z,101788.38
2018-04-17T01:36:41.754Z,101794.45
2018-04-17T01:39:10.024Z,101791.36
2018-04-17T01:41:38.283Z,101799.63
2018-04-17T01:44:07.327Z,101804.02
2018-04-17T01:46:35.592Z,101806.66
2018-04-17T01:49:04.612Z,101811.05
2018-04-17T01:51:32.909Z,101814.10
2018-04-17T01:54:01.173Z,101817.63
2018-04-17T01:56:30.238Z,101821.11
2018-04-17T01:58:59.319Z,101822.41
2018-04-17T02:01:27.579Z,101819.78
2018-04-17T02:03:56.612Z,101816.31
2018-04-17T02:06:24.882Z,101817.23
2018-04-17T02:08:53.158Z,101820.30
2018-04-17T02:11:22.176Z,101825.55
2018-04-17T02:13:51.219Z,101826.03
2018-04-17T02:16:19.477Z,101823.01
2018-04-17T02:18:48.503Z,101828.23
2018-04-17T02:21:16.767Z,101826.95
2018-04-17T02:23:45.800Z,101830.84
2018-04-17T02:26:14.103Z,101833.05
2018-04-17T02:28:42.380Z,101835.64
2018-04-17T02:31:10.625Z,101833.90
2018-04-17T02:33:38.891Z,101833.48
2018-04-17T02:36:07.168Z,101834.39
2018-04-17T02:38:35.427Z,101838.70
2018-04-17T02:41:04.460Z,101837.38
2018-04-17T02:43:32.734Z,101835.67
2018-04-17T02:46:00.993Z,101845.22
2018-04-17T02:48:30.043Z,101849.58
2018-04-17T02:50:58.320Z,101846.59
2018-04-17T02:53:26.591Z,101847.02
2018-04-17T02:55:55.619Z,101849.23
2018-04-17T02:58:23.928Z,101847.92
2018-04-17T03:00:52.188Z,101843.15
2018-04-17T03:03:21.196Z,101847.97
2018-04-17T03:05:50.340Z,101850.13
2018-04-17T03:08:18.592Z,101851.47
2018-04-17T03:10:46.859Z,101852.79
2018-04-17T03:13:15.124Z,101855.77
2018-04-17T03:15:43.389Z,101854.88
2018-04-17T03:18:11.655Z,101847.96
2018-04-17T03:20:39.926Z,101854.80
2018-04-17T03:23:08.960Z,101845.67
2018-04-17T03:25:37.214Z,101841.31
2018-04-17T03:28:05.508Z,101844.33
2018-04-17T03:30:33.785Z,101843.86
2018-04-17T03:33:02.226Z,101840.84
2018-04-17T03:35:30.499Z,101836.50
2018-04-17T03:37:59.525Z,101842.09
2018-04-17T03:40:27.800Z,101846.91
2018-04-17T03:42:56.844Z,101854.11
2018-04-17T03:45:25.103Z,101857.15
2018-04-17T03:47:53.375Z,101857.16
2018-04-17T03:50:22.443Z,101853.63
2018-04-17T03:52:50.691Z,101854.52
2018-04-17T03:55:18.973Z,101856.66
2018-04-17T03:57:48.213Z,101855.34
2018-04-17T04:00:16.483Z,101853.64
2018-04-17T04:02:44.747Z,101851.41
2018-04-17T04:05:13.011Z,101848.39
2018-04-17T04:07:41.283Z,101854.09
2018-04-17T04:10:09.748Z,101848.86
2018-04-17T04:12:38.012Z,101857.56
2018-04-17T04:15:07.043Z,101858.01
2018-04-17T04:17:53.004Z,101858.06
2018-04-17T04:20:38.703Z,101858.06
2018-04-17T04:23:24.546Z,101859.81
2018-04-17T04:26:10.436Z,101862.50
2018-04-17T04:28:39.475Z,101869.88
2018-04-17T04:31:07.731Z,101865.55
2018-04-17T04:33:36.778Z,101874.60
2018-04-17T04:36:05.045Z,101876.38
2018-04-17T04:38:33.336Z,101882.48
2018-04-17T04:41:01.611Z,101877.29
2018-04-17T04:43:30.665Z,101872.09
2018-04-17T04:45:58.922Z,101878.55
2018-04-17T04:48:27.202Z,101883.28
2018-04-17T04:50:56.230Z,101882.89
2018-04-17T04:53:24.495Z,101888.98
2018-04-17T04:55:53.550Z,101890.73
2018-04-17T04:58:21.809Z,101891.13
2018-04-17T05:00:50.068Z,101897.97
2018-04-17T05:03:18.354Z,101904.91
2018-04-17T05:05:46.613Z,101901.86
2018-04-17T05:08:14.883Z,101906.65
2018-04-17T05:10:43.157Z,101912.66
2018-04-17T05:13:11.443Z,101912.69
2018-04-17T05:15:39.704Z,101917.02
2018-04-17T05:18:07.963Z,101927.36
2018-04-17T05:20:36.250Z,101932.95
2018-04-17T05:23:04.506Z,101938.47
2018-04-17T05:25:33.579Z,101940.55
2018-04-17T05:28:01.864Z,101954.26
2018-04-17T05:30:30.247Z,101956.33
2018-04-17T05:32:58.499Z,101965.39
2018-04-17T05:35:26.840Z,101970.94
2018-04-17T05:37:55.093Z,101979.00
2018-04-17T05:40:23.352Z,101988.81
2018-04-17T05:42:51.667Z,101994.89
2018-04-17T05:45:19.931Z,101999.59
2018-04-17T05:47:48.967Z,102005.47
2018-04-17T05:50:17.249Z,102002.20
2018-04-17T05:52:45.533Z,102012.36
2018-04-17T05:55:13.793Z,102023.17
2018-04-17T05:57:42.892Z,102020.80
2018-04-17T06:00:11.157Z,102009.79
2018-04-17T06:02:39.448Z,102016.53
2018-04-17T06:05:07.726Z,102020.77
2018-04-17T06:07:36.004Z,102013.09
2018-04-17T06:10:04.316Z,102011.19
2018-04-17T06:12:32.608Z,102016.69
2018-04-17T06:15:00.870Z,102026.41
2018-04-17T06:17:30.189Z,102018.34
2018-04-17T06:19:58.624Z,102023.69
2018-04-17T06:22:26.881Z,102026.67
2018-04-17T06:24:55.142Z,102026.28
2018-04-17T06:27:23.425Z,102019.22
2018-04-17T06:29:51.688Z,102027.19
2018-04-17T06:32:19.969Z,102027.80
2018-04-17T06:34:48.258Z,102027.16
2018-04-17T06:37:16.516Z,102027.53
2018-04-17T06:39:44.772Z,102022.14
2018-04-17T06:42:13.819Z,102027.41
2018-04-17T06:44:42.085Z,102028.23
2018-04-17T06:47:10.346Z,102026.03
2018-04-17T06:49:39.385Z,102028.12
2018-04-17T06:52:07.666Z,102032.42
2018-04-17T06:54:35.928Z,102030.86
2018-04-17T06:57:04.332Z,102045.62
2018-04-17T06:59:33.379Z,102044.97
2018-04-17T07:02:01.662Z,102046.94
2018-04-17T07:04:29.919Z,102051.29
2018-04-17T07:06:58.956Z,102046.47
2018-04-17T07:09:27.215Z,102051.39
2018-04-17T07:11:56.279Z,102059.59
2018-04-17T07:14:24.645Z,102062.11
2018-04-17T07:16:53.036Z,102056.72
2018-04-17T07:19:21.312Z,102055.53
2018-04-17T07:21:50.354Z,102053.86
2018-04-17T07:24:18.666Z,102048.70
2018-04-17T07:26:46.945Z,102054.55
2018-04-17T07:29:15.199Z,102065.68
2018-04-17T07:31:43.468Z,102061.72
2018-04-17T07:34:12.505Z,102062.98
2018-04-17T07:36:40.769Z,102061.09
2018-04-17T07:39:10.496Z,102062.16
2018-04-17T07:41:39.556Z,102061.25
2018-04-17T07:44:07.817Z,102070.95
2018-04-17T07:46:36.076Z,102065.62
2018-04-17T07:49:06.448Z,102076.83
2018-04-17T07:51:34.711Z,102069.99
2018-04-17T07:54:03.749Z,102073.13
2018-04-17T07:56:32.035Z,102081.19
2018-04-17T07:59:00.301Z,102085.45
2018-04-17T08:01:29.329Z,102083.30
2018-04-17T08:03:57.599Z,102088.27
2018-04-17T08:06:25.864Z,102091.95
2018-04-17T08:08:54.123Z,102088.92
2018-04-17T08:11:22.400Z,102089.17
2018-04-17T08:13:50.660Z,102091.01
2018-04-17T08:16:19.739Z,102095.95
2018-04-17T08:18:48.024Z,102094.91
2018-04-17T08:21:16.285Z,102094.15
2018-04-17T08:23:44.547Z,102094.32
2018-04-17T08:26:12.819Z,102094.05
2018-04-17T08:28:41.869Z,102091.78
2018-04-17T08:31:10.123Z,102098.57
2018-04-17T08:33:39.186Z,102094.14
2018-04-17T08:36:07.461Z,102099.16
2018-04-17T08:38:35.723Z,102094.87
2018-04-17T08:41:04.059Z,102090.79
2018-04-17T08:43:32.408Z,102087.30
2018-04-17T08:46:00.717Z,102083.45
2018-04-17T08:48:29.000Z,102086.62
2018-04-17T08:50:57.270Z,102085.30
2018-04-17T08:53:25.527Z,102083.10
2018-04-17T08:55:53.796Z,102074.46
2018-04-17T08:58:22.060Z,102072.52
2018-04-17T09:00:50.327Z,102074.16
2018-04-17T09:03:19.363Z,102077.19
2018-04-17T09:05:47.634Z,102076.44
2018-04-17T09:08:15.884Z,102078.90
2018-04-17T09:10:44.184Z,102081.43
2018-04-17T09:13:13.208Z,102076.57
2018-04-17T09:15:41.471Z,102074.41
2018-04-17T09:18:09.763Z,102080.00
2018-04-17T09:20:38.050Z,102079.82
2018-04-17T09:23:06.345Z,102079.33
2018-04-17T09:25:34.636Z,102074.59
2018-04-17T09:28:02.907Z,102080.65
2018-04-17T09:30:31.172Z,102085.65
2018-04-17T09:32:59.445Z,102079.35
2018-04-17T09:35:27.704Z,102071.24
2018-04-17T09:37:56.728Z,102077.94
2018-04-17T09:40:25.026Z,102072.42
2018-04-17T09:42:53.275Z,102069.85
2018-04-17T09:45:21.540Z,102077.63
2018-04-17T09:47:49.822Z,102075.38
2018-04-17T09:50:18.076Z,102077.72
2018-04-17T09:52:46.357Z,102081.63
2018-04-17T09:55:15.397Z,102080.78
2018-04-17T09:57:43.670Z,102080.56
2018-04-17T10:00:11.929Z,102077.80
2018-04-17T10:02:40.208Z,102076.00
2018-04-17T10:05:08.467Z,102078.91
2018-04-17T10:07:36.720Z,102074.47
2018-04-17T10:10:05.008Z,102070.55
2018-04-17T10:12:34.032Z,102067.81
2018-04-17T10:15:02.304Z,102066.02
2018-04-17T10:17:30.604Z,102059.98
2018-04-17T10:19:59.716Z,102065.90
2018-04-17T10:22:27.971Z,102059.21
2018-04-17T10:24:56.248Z,102074.84
2018-04-17T10:27:24.528Z,102073.69
2018-04-17T10:29:52.822Z,102067.68
2018-04-17T10:32:21.059Z,102061.59
2018-04-17T10:34:49.335Z,102061.42
2018-04-17T10:37:18.352Z,102061.02
2018-04-17T10:39:46.689Z,102069.34
2018-04-17T10:42:14.899Z,102047.91
2018-04-17T10:44:43.174Z,102050.38
2018-04-17T10:47:11.448Z,102042.52
2018-04-17T10:49:39.723Z,102049.12
2018-04-17T10:52:07.983Z,102044.05
2018-04-17T10:54:37.026Z,102052.83
2018-04-17T10:57:05.287Z,102049.86
2018-04-17T10:59:34.351Z,102038.98
2018-04-17T11:02:02.626Z,102037.71
2018-04-17T11:04:30.953Z,102033.24
2018-04-17T11:06:59.265Z,102032.63
2018-04-17T11:09:28.299Z,102032.79
2018-04-17T11:11:56.560Z,102035.70
2018-04-17T11:14:25.597Z,102044.00
2018-04-17T11:16:53.867Z,102041.42
2018-04-17T11:19:22.129Z,102040.34
2018-04-17T11:21:50.385Z,102037.67
2018-04-17T11:24:18.646Z,102033.41
2018-04-17T11:26:48.923Z,102038.88
2018-04-17T11:29:17.268Z,102042.13
2018-04-17T11:31:45.528Z,102042.81
2018-04-17T11:34:14.572Z,102038.83
2018-04-17T11:36:42.829Z,102030.44
2018-04-17T11:39:11.882Z,102048.47
2018-04-17T11:41:40.136Z,102061.66
2018-04-17T11:44:09.239Z,102042.05
2018-04-17T11:46:38.752Z,102039.22
2018-04-17T11:49:08.443Z,102040.31
2018-04-17T11:51:36.712Z,102040.84
2018-04-17T11:54:04.992Z,102024.20
2018-04-17T11:56:33.273Z,102030.13
2018-04-17T11:59:01.624Z,102027.93
2018-04-17T12:01:29.942Z,102032.08
2018-04-17T12:03:58.224Z,102033.44
2018-04-17T12:06:27.247Z,102026.61
2018-04-17T12:08:55.535Z,102025.34
2018-04-17T12:11:23.790Z,102028.73
2018-04-17T12:13:52.043Z,102024.44
2018-04-17T12:16:20.320Z,102014.77
2018-04-17T12:18:48.604Z,102038.49
2018-04-17T12:21:16.868Z,102023.48
2018-04-17T12:23:45.904Z,102026.12
2018-04-17T12:26:14.169Z,102021.88
2018-04-17T12:28:43.197Z,102016.71
2018-04-17T12:31:11.469Z,102011.84
2018-04-17T12:33:40.492Z,102017.19
2018-04-17T12:36:08.782Z,102025.89
2018-04-17T12:38:37.051Z,102022.77
2018-04-17T12:41:06.080Z,102027.68
2018-04-17T12:43:34.355Z,102026.05
2018-04-17T12:46:03.676Z,102017.34
2018-04-17T12:48:31.959Z,102012.52
2018-04-17T12:51:01.036Z,102009.76
2018-04-17T12:53:29.323Z,102012.03
2018-04-17T12:55:57.606Z,102023.39
2018-04-17T12:58:25.859Z,102018.05
2018-04-17T13:00:54.133Z,102026.30
2018-04-17T13:03:23.170Z,102027.28
2018-04-17T13:05:51.536Z,102024.36
2018-04-17T13:08:20.584Z,102017.22
2018-04-17T13:10:48.834Z,102009.56
2018-04-17T13:13:17.107Z,102022.63
2018-04-17T13:15:46.175Z,102011.19
2018-04-17T13:18:14.455Z,102005.38
2018-04-17T13:20:42.721Z,102005.70
2018-04-17T13:23:10.984Z,102008.38
2018-04-17T13:25:40.013Z,102011.27
2018-04-17T13:28:08.267Z,102003.63
2018-04-17T13:30:36.534Z,101992.10
2018-04-17T13:33:04.808Z,101992.45
2018-04-17T13:35:33.080Z,101993.07
2018-04-17T13:38:01.432Z,101983.03
2018-04-17T13:40:29.701Z,101985.36
2018-04-17T13:42:57.973Z,101980.25
2018-04-17T13:45:26.248Z,101975.59
2018-04-17T13:47:54.525Z,101964.75
2018-04-17T13:50:22.784Z,101967.94
2018-04-17T13:52:51.106Z,101961.77
2018-04-17T13:55:19.393Z,101964.07
2018-04-17T13:57:47.650Z,101972.41
2018-04-17T14:00:15.920Z,101979.17
2018-04-17T14:02:44.201Z,101976.29
2018-04-17T14:05:12.451Z,101975.23
2018-04-17T14:07:40.723Z,101973.73
2018-04-17T14:10:09.747Z,101972.92
2018-04-17T14:12:38.027Z,101970.98
2018-04-17T14:15:07.059Z,101973.58
2018-04-17T14:17:35.327Z,101975.84
2018-04-17T14:20:04.384Z,101973.42
2018-04-17T14:22:32.654Z,101972.13
2018-04-17T14:25:00.928Z,101972.75
2018-04-17T14:27:29.204Z,101980.22
2018-04-17T14:29:57.492Z,101988.27
2018-04-17T14:32:26.519Z,101988.80
2018-04-17T14:34:54.795Z,101982.66
2018-04-17T14:37:23.870Z,101993.23
2018-04-17T14:39:52.135Z,101989.57
2018-04-17T14:42:20.391Z,101980.49
2018-04-17T14:44:48.672Z,101986.50
2018-04-17T14:47:16.928Z,101973.16
2018-04-17T14:49:45.211Z,101973.47
2018-04-17T14:52:13.480Z,101976.22
2018-04-17T14:54:41.833Z,101979.08
2018-04-17T14:57:10.056Z,101991.16
2018-04-17T14:59:38.335Z,101986.42
2018-04-17T15:02:06.595Z,101990.58
2018-04-17T15:04:35.620Z,101989.66
2018-04-17T15:07:03.920Z,101987.91
2018-04-17T15:09:32.200Z,101993.53
2018-04-17T15:12:00.512Z,101997.88
2018-04-17T15:14:28.798Z,102004.61
2018-04-17T15:16:57.067Z,101998.13
2018-04-17T15:19:25.357Z,102000.13
2018-04-17T15:21:53.725Z,102002.80
2018-04-17T15:24:21.943Z,101999.48
2018-04-17T15:26:50.358Z,101998.83
2018-04-17T15:29:19.507Z,102002.38
2018-04-17T15:31:47.774Z,101997.25
2018-04-17T15:34:16.048Z,101989.02
2018-04-17T15:36:44.316Z,101991.30
2018-04-17T15:39:12.584Z,101990.14
2018-04-17T15:41:41.601Z,101990.47
2018-04-17T15:44:09.880Z,101992.98
2018-04-17T15:46:38.902Z,102000.41
2018-04-17T15:49:07.199Z,101993.30
2018-04-17T15:51:35.489Z,102003.34
2018-04-17T15:54:03.769Z,101995.17
2018-04-17T15:56:32.103Z,101994.73
2018-04-17T15:59:01.636Z,101996.77
2018-04-17T16:01:30.005Z,101991.82
2018-04-17T16:03:58.251Z,101991.84
2018-04-17T16:06:27.316Z,102000.38
2018-04-17T16:08:55.597Z,101998.01
2018-04-17T16:11:23.850Z,101991.52
2018-04-17T16:13:52.128Z,101992.65
2018-04-17T16:16:21.170Z,101998.09
2018-04-17T16:18:49.441Z,101995.30
2018-04-17T16:21:17.707Z,102002.77
2018-04-17T16:23:46.727Z,102002.11
2018-04-17T16:26:14.999Z,102010.69
2018-04-17T16:28:43.304Z,102011.95
2018-04-17T16:31:12.321Z,102013.54
2018-04-17T16:33:40.576Z,102010.05
2018-04-17T16:36:08.839Z,102010.07
2018-04-17T16:38:37.098Z,102009.28
2018-04-17T16:41:05.375Z,102014.37
2018-04-17T16:43:34.460Z,102005.45
2018-04-17T16:46:03.147Z,102009.28
2018-04-17T16:48:31.599Z,102018.48
2018-04-17T16:50:59.925Z,102015.42
2018-04-17T16:53:28.195Z,102022.88
2018-04-17T16:55:56.449Z,102024.75
2018-04-17T16:58:24.767Z,102028.47
2018-04-17T17:00:53.053Z,102031.19
2018-04-17T17:03:21.299Z,102033.86
2018-04-17T17:05:50.356Z,102032.33
2018-04-17T17:08:18.622Z,102033.32
2018-04-17T17:10:46.896Z,102033.73
2018-04-17T17:13:15.181Z,102040.30
2018-04-17T17:15:44.212Z,102041.97
2018-04-17T17:18:12.482Z,102042.86
2018-04-17T17:20:41.523Z,102038.88
2018-04-17T17:23:09.780Z,102041.95
2018-04-17T17:25:38.810Z,102038.11
2018-04-17T17:28:07.138Z,102038.38
2018-04-17T17:30:35.402Z,102037.34
2018-04-17T17:33:03.690Z,102038.84
2018-04-17T17:35:31.963Z,102040.86
2018-04-17T17:38:00.245Z,102049.30
2018-04-17T17:40:29.281Z,102062.23
2018-04-17T17:42:57.571Z,102068.09
2018-04-17T17:45:25.823Z,102070.69
2018-04-17T17:47:54.861Z,102069.05
2018-04-17T17:50:23.152Z,102074.78
2018-04-17T17:52:51.453Z,102073.35
2018-04-17T17:55:19.745Z,102079.16
2018-04-17T17:57:48.121Z,102079.41
2018-04-17T18:00:16.408Z,102077.28
2018-04-17T18:02:45.449Z,102081.45
2018-04-17T18:05:13.735Z,102081.18
2018-04-17T18:07:42.407Z,102081.30
2018-04-17T18:10:11.844Z,102086.12
2018-04-17T18:12:40.120Z,102085.54
2018-04-17T18:15:08.442Z,102087.52
2018-04-17T18:17:36.700Z,102089.44
2018-04-17T18:20:05.089Z,102090.45
2018-04-17T18:22:34.121Z,102091.78
2018-04-17T18:25:02.455Z,102101.43
2018-04-17T18:27:30.732Z,102101.47
2018-04-17T18:29:59.028Z,102102.82
2018-04-17T18:32:27.304Z,102107.03
2018-04-17T18:34:55.572Z,102110.59
2018-04-17T18:37:23.865Z,102114.65
2018-04-17T18:39:52.158Z,102114.65
2018-04-17T18:42:20.453Z,102114.75
2018-04-17T18:44:48.725Z,102117.94
2018-04-17T18:47:16.987Z,102122.25
2018-04-17T18:49:46.076Z,102129.22
2018-04-17T18:52:14.476Z,102126.91
2018-04-17T18:54:45.820Z,102133.70
2018-04-17T18:57:16.304Z,102135.59
2018-04-17T18:59:45.315Z,102140.84
2018-04-17T19:02:13.572Z,102140.68
2018-04-17T19:04:42.665Z,102144.38
2018-04-17T19:07:10.928Z,102150.47
2018-04-17T19:09:39.213Z,102156.63
2018-04-17T19:12:07.479Z,102158.48
2018-04-17T19:14:35.943Z,102165.00
2018-04-17T19:17:04.208Z,102175.34
2018-04-17T19:19:32.471Z,102174.49
2018-04-17T19:22:01.819Z,102174.51
2018-04-17T19:24:30.934Z,102176.73
2018-04-17T19:26:59.211Z,102182.07
2018-04-17T19:29:27.456Z,102186.72
2018-04-17T19:31:55.738Z,102186.92
2018-04-17T19:34:24.051Z,102186.48
2018-04-17T19:36:52.312Z,102192.33
2018-04-17T19:39:21.347Z,102195.30
2018-04-17T19:41:49.643Z,102198.39
2018-04-17T19:44:17.900Z,102205.48
2018-04-17T19:46:46.921Z,102203.98
2018-04-17T19:49:15.199Z,102208.23
2018-04-17T19:51:44.319Z,102212.66
2018-04-17T19:54:13.359Z,102220.92
2018-04-17T19:56:41.667Z,102218.22
2018-04-17T19:59:09.983Z,102219.86
2018-04-17T20:01:38.303Z,102218.78
2018-04-17T20:04:06.859Z,102218.19
2018-04-17T20:06:35.140Z,102219.33
2018-04-17T20:09:03.483Z,102219.06
2018-04-17T20:11:32.463Z,102225.98
2018-04-17T20:14:00.795Z,102226.52
2018-04-17T20:16:29.308Z,102227.69
2018-04-17T20:18:57.672Z,102223.58
2018-04-17T20:21:25.931Z,102224.27
2018-04-17T20:23:54.977Z,102223.11
2018-04-17T20:26:23.269Z,102227.69
2018-04-17T20:28:51.588Z,102241.42
2018-04-17T20:31:19.895Z,102237.55
2018-04-17T20:33:48.219Z,102232.22
2018-04-17T20:36:17.286Z,102237.45
2018-04-17T20:38:45.570Z,102239.11
2018-04-17T20:41:13.863Z,102240.66
2018-04-17T20:43:42.124Z,102238.19
2018-04-17T20:46:10.392Z,102239.26
2018-04-17T20:48:40.809Z,102243.39
2018-04-17T20:51:09.848Z,102243.27
2018-04-17T20:53:38.104Z,102240.13
2018-04-17T20:56:07.167Z,102250.16
2018-04-17T20:58:36.563Z,102254.80
2018-04-17T21:01:04.933Z,102251.45
2018-04-17T21:03:33.300Z,102245.02
2018-04-17T21:06:03.944Z,102255.33
2018-04-17T21:08:32.442Z,102261.86
2018-04-17T21:11:00.751Z,102258.73
2018-04-17T21:13:29.791Z,102261.64
2018-04-17T21:15:58.052Z,102261.09
2018-04-17T21:18:27.110Z,102267.95
2018-04-17T21:20:55.375Z,102273.39
2018-04-17T21:23:23.720Z,102266.59
2018-04-17T21:25:52.040Z,102274.22
2018-04-17T21:28:21.070Z,102269.69
2018-04-17T21:30:49.440Z,102276.02
2018-04-17T21:33:18.476Z,102284.61
2018-04-17T21:35:46.738Z,102283.87
2018-04-17T21:38:15.774Z,102289.28
2018-04-17T21:40:44.073Z,102296.41
2018-04-17T21:43:12.331Z,102294.36
2018-04-17T21:45:40.611Z,102295.36
2018-04-17T21:48:09.740Z,102298.17
2018-04-17T21:50:38.007Z,102296.16
2018-04-17T21:53:07.039Z,102297.17
2018-04-17T21:55:35.329Z,102299.17
2018-04-17T21:58:03.615Z,102298.47
2018-04-17T22:00:32.003Z,102298.47
2018-04-17T22:03:00.274Z,102303.00
2018-04-17T22:05:29.312Z,102302.62
2018-04-17T22:07:57.573Z,102303.11
2018-04-17T22:10:26.616Z,102305.84
2018-04-17T22:12:54.886Z,102308.42
2018-04-17T22:15:23.921Z,102309.61
2018-04-17T22:17:52.192Z,102312.97
2018-04-17T22:20:20.462Z,102311.11
2018-04-17T22:22:49.485Z,102314.66
2018-04-17T22:25:17.783Z,102318.22
2018-04-17T22:27:46.061Z,102313.01
2018-04-17T22:30:15.143Z,102310.56
2018-04-17T22:32:43.428Z,102319.91
2018-04-17T22:35:11.692Z,102319.34
2018-04-17T22:37:39.980Z,102319.18
2018-04-17T22:40:08.284Z,102323.57
2018-04-17T22:42:36.548Z,102330.80
2018-04-17T22:45:04.851Z,102334.14
2018-04-17T22:47:33.294Z,102332.08
2018-04-17T22:50:01.543Z,102337.37
2018-04-17T22:52:29.804Z,102341.84
2018-04-17T22:54:58.107Z,102347.70
2018-04-17T22:57:26.402Z,102337.44
2018-04-17T22:59:54.673Z,102343.66
2018-04-17T23:02:22.970Z,102344.87
2018-04-17T23:04:51.223Z,102343.66
2018-04-17T23:07:20.285Z,102346.00
2018-04-17T23:09:48.580Z,102351.45
2018-04-17T23:12:16.851Z,102353.30
2018-04-17T23:14:45.135Z,102350.40
2018-04-17T23:17:13.457Z,102355.78
2018-04-17T23:19:41.727Z,102356.13
2018-04-17T23:22:10.020Z,102360.73
2018-04-17T23:24:38.286Z,102358.49
2018-04-17T23:27:06.589Z,102356.31
2018-04-17T23:29:34.915Z,102364.52
2018-04-17T23:32:03.246Z,102367.67
2018-04-17T23:34:32.271Z,102361.61
2018-04-17T23:37:00.532Z,102365.06
2018-04-17T23:39:29.599Z,102365.59
2018-04-17T23:41:57.857Z,102366.95
2018-04-17T23:44:26.130Z,102361.77
2018-04-17T23:46:55.168Z,102365.74
2018-04-17T23:49:23.440Z,102365.77
2018-04-17T23:51:51.696Z,102373.01
2018-04-17T23:54:20.792Z,102366.16
2018-04-17T23:56:49.065Z,102369.70
2018-04-17T23:59:17.339Z,102378.31
